Time;durP1;ratioP1;P1;durP2;ratioP2;P2;SDS_P1;SDS_P2;PMS_P1;PMS_P2;Temp;Humidity;BMP_temperature;BMP_pressure;BME280_temperature;BME280_humidity;BME280_pressure;Samples;Min_cycle;Max_cycle;Signal;HPM_P1;HPM_P2
2023/10/16 00:02:22;;;;;;;1.10;1.10;;;;;;;-0.81;92.09;99196.97;5009160;28;20076;-78
2023/10/16 00:04:49;;;;;;;1.10;1.10;;;;;;;-0.79;91.94;99200.63;5013371;28;20045;-82
2023/10/16 00:07:16;;;;;;;1.10;1.10;;;;;;;-0.74;92.65;99201.00;5026781;28;20034;-79
2023/10/16 00:09:41;;;;;;;1.10;1.10;;;;;;;-1.03;92.56;99196.94;5014499;28;20450;-76
2023/10/16 00:12:08;;;;;;;1.10;1.10;;;;;;;-0.72;92.57;99191.53;5015227;28;20036;-78
2023/10/16 00:14:35;;;;;;;1.10;1.10;;;;;;;-0.67;92.14;99196.38;5011241;28;20131;-80
2023/10/16 00:17:03;;;;;;;1.10;1.10;;;;;;;-0.50;92.16;99192.47;5017284;28;20041;-79
2023/10/16 00:19:33;;;;;;;1.10;1.10;;;;;;;-0.75;92.44;99196.56;5009770;28;20066;-79
2023/10/16 00:22:00;;;;;;;1.00;1.00;;;;;;;-0.75;92.20;99200.09;5014169;28;20041;-78
2023/10/16 00:24:26;;;;;;;1.10;1.10;;;;;;;-0.66;92.17;99198.19;5014020;28;20042;-77
2023/10/16 00:26:51;;;;;;;1.00;1.00;;;;;;;-0.82;91.79;99211.75;5012573;28;20049;-78
2023/10/16 00:29:24;;;;;;;1.10;1.10;;;;;;;-1.06;92.22;99212.38;5011021;28;20045;-78
2023/10/16 00:31:58;;;;;;;1.10;1.10;;;;;;;-1.00;92.81;99206.75;5012042;28;20128;-81
2023/10/16 00:34:24;;;;;;;1.10;1.10;;;;;;;-1.19;92.88;99217.44;5014247;28;20034;-77
2023/10/16 00:36:54;;;;;;;1.10;1.10;;;;;;;-0.98;92.70;99208.69;5013256;28;20052;-78
2023/10/16 00:39:20;;;;;;;1.10;1.10;;;;;;;-0.97;92.67;99205.28;5012386;28;20469;-79
2023/10/16 00:41:52;;;;;;;1.10;1.10;;;;;;;-0.97;92.56;99200.03;5009046;28;20053;-79
2023/10/16 00:44:17;;;;;;;1.10;1.10;;;;;;;-1.13;92.45;99200.50;5011160;28;20046;-79
2023/10/16 00:46:48;;;;;;;1.10;1.10;;;;;;;-1.15;92.49;99198.53;5014222;28;20431;-78
2023/10/16 00:49:14;;;;;;;1.10;1.10;;;;;;;-0.94;92.12;99197.69;5010297;28;20034;-78
2023/10/16 00:51:41;;;;;;;1.10;1.10;;;;;;;-1.26;92.41;99202.00;5013724;28;20045;-75
2023/10/16 00:54:16;;;;;;;1.10;1.10;;;;;;;-1.09;92.56;99199.06;5010762;28;20030;-76
2023/10/16 00:56:43;;;;;;;1.10;1.10;;;;;;;-0.99;92.60;99201.63;5008342;28;20065;-79
2023/10/16 00:59:10;;;;;;;;;;;;;;;-1.15;92.42;99193.31;5023172;28;20149;-79
2023/10/16 01:01:43;;;;;;;1.10;1.10;;;;;;;-1.51;92.12;99194.72;5012168;28;20003;-78
2023/10/16 01:04:10;;;;;;;1.10;1.10;;;;;;;-1.75;92.98;99190.97;5010374;23;20138;-78
2023/10/16 01:06:36;;;;;;;1.20;1.20;;;;;;;-1.84;92.78;99182.34;5006189;28;20115;-77
2023/10/16 01:09:08;;;;;;;1.10;1.10;;;;;;;-1.49;93.32;99184.38;4972104;28;20042;-78
2023/10/16 01:11:37;;;;;;;1.10;1.10;;;;;;;-1.34;93.35;99183.97;4985299;28;20092;-79
2023/10/16 01:14:04;;;;;;;1.10;1.10;;;;;;;-1.20;93.08;99176.31;4984565;28;20038;-77
2023/10/16 01:16:30;;;;;;;1.10;1.10;;;;;;;-1.19;93.29;99172.91;4984871;28;20034;-78
2023/10/16 01:19:03;;;;;;;1.10;1.10;;;;;;;-0.88;92.90;99166.75;4989380;28;20077;-77
2023/10/16 01:21:31;;;;;;;1.10;1.10;;;;;;;-1.17;93.16;99169.63;4989760;28;19929;-79
2023/10/16 01:24:02;;;;;;;1.10;1.10;;;;;;;-1.51;92.96;99170.25;4987606;28;20042;-79
2023/10/16 01:26:30;;;;;;;1.10;1.10;;;;;;;-1.60;93.21;99178.25;4992425;28;20034;-80
2023/10/16 01:28:55;;;;;;;1.10;1.10;;;;;;;-1.52;93.45;99177.22;4987174;28;20056;-80
2023/10/16 01:31:21;;;;;;;1.20;1.20;;;;;;;-1.70;93.44;99175.66;4989188;28;20042;-79
2023/10/16 01:33:47;;;;;;;1.10;1.10;;;;;;;-1.57;93.39;99171.59;4984305;28;20034;-79
2023/10/16 01:36:13;;;;;;;1.10;1.10;;;;;;;-1.56;93.46;99168.19;4993822;28;20528;-76
2023/10/16 01:38:40;;;;;;;1.10;1.10;;;;;;;-1.55;93.47;99166.47;4988560;28;20041;-78
2023/10/16 01:41:07;;;;;;;;;;;;;;;;;;;;;
2023/10/16 01:43:32;;;;;;;1.10;1.10;;;;;;;-1.20;93.45;99169.34;4968902;28;20058;-76
2023/10/16 01:46:07;;;;;;;1.10;1.10;;;;;;;-1.42;93.27;99171.94;4972586;28;20039;-77
2023/10/16 01:48:33;;;;;;;1.10;1.10;;;;;;;-1.28;93.14;99164.31;4972430;28;20053;-77
2023/10/16 01:51:00;;;;;;;1.10;1.10;;;;;;;-1.42;93.04;99160.56;4972213;28;20066;-80
2023/10/16 01:53:32;;;;;;;1.10;1.10;;;;;;;-1.09;92.89;99162.41;4962882;28;20039;-77
2023/10/16 01:55:58;;;;;;;1.10;1.10;;;;;;;-1.38;93.15;99162.66;4973326;28;20053;-77
2023/10/16 01:58:25;;;;;;;1.10;1.10;;;;;;;-1.49;92.82;99159.13;4967081;28;20035;-77
2023/10/16 02:00:54;;;;;;;1.10;1.10;;;;;;;-1.69;93.02;99159.19;4970950;28;20039;-77
2023/10/16 02:03:22;;;;;;;1.10;1.10;;;;;;;-1.89;92.88;99154.91;4968803;28;20436;-77
2023/10/16 02:05:48;;;;;;;1.20;1.20;;;;;;;-2.00;93.04;99156.63;4958275;28;20121;-77
2023/10/16 02:08:14;;;;;;;1.10;1.10;;;;;;;-1.88;93.21;99154.13;4972226;28;20054;-78
2023/10/16 02:10:40;;;;;;;1.10;1.10;;;;;;;-1.96;93.21;99153.50;4978895;28;20118;-78
2023/10/16 02:13:06;;;;;;;1.10;1.10;;;;;;;-1.78;93.54;99161.03;4966825;28;20038;-77
2023/10/16 02:15:36;;;;;;;1.10;1.10;;;;;;;-1.97;93.65;99151.63;4970717;28;20485;-77
2023/10/16 02:18:27;;;;;;;1.10;1.10;;;;;;;-1.96;93.37;99153.50;4971191;28;20035;-78
2023/10/16 02:20:52;;;;;;;1.10;1.10;;;;;;;-1.69;93.33;99149.63;4963117;28;20054;-78
2023/10/16 02:23:18;;;;;;;1.10;1.10;;;;;;;-1.49;93.26;99143.44;4970226;28;20409;-78
2023/10/16 02:25:48;;;;;;;1.10;1.10;;;;;;;-1.65;93.37;99141.25;4951803;28;20042;-78
2023/10/16 02:28:13;;;;;;;1.10;1.10;;;;;;;-1.54;93.40;99139.50;4970995;28;20049;-78
2023/10/16 02:30:41;;;;;;;1.10;1.10;;;;;;;-1.96;93.40;99135.19;4968060;28;20039;-77
2023/10/16 02:33:26;;;;;;;1.10;1.10;;;;;;;-2.18;93.60;99129.84;4969171;28;20077;-78
2023/10/16 02:35:53;;;;;;;1.10;1.10;;;;;;;-1.96;93.65;99131.66;4970130;28;20058;-78
2023/10/16 02:38:28;;;;;;;;;;;;;;;-1.99;93.69;99141.84;4973300;28;20405;-77
2023/10/16 02:41:03;;;;;;;1.10;1.10;;;;;;;-2.21;93.76;99139.09;4971806;28;19917;-77
2023/10/16 02:43:29;;;;;;;1.10;1.10;;;;;;;-2.12;93.49;99132.03;4972839;28;20044;-77
2023/10/16 02:45:56;;;;;;;1.02;1.02;;;;;;;-1.76;93.14;99121.16;4976916;28;20096;-77
2023/10/16 02:48:22;;;;;;;1.20;1.20;;;;;;;-1.59;93.59;99127.75;4969429;28;20043;-78
2023/10/16 02:50:50;;;;;;;1.20;1.20;;;;;;;-1.75;93.25;99132.53;4966998;28;20043;-77
2023/10/16 02:53:21;;;;;;;;;;;;;;;-1.74;93.00;99130.03;4972696;28;20046;-77
2023/10/16 02:55:49;;;;;;;1.10;1.10;;;;;;;-1.68;93.12;99124.38;4974457;28;19965;-77
2023/10/16 02:58:15;;;;;;;1.10;1.10;;;;;;;-1.66;93.06;99118.50;4977345;28;20132;-77
2023/10/16 03:00:49;;;;;;;1.10;1.10;;;;;;;-1.72;93.11;99123.25;4964402;28;20164;-77
2023/10/16 03:03:17;;;;;;;1.10;1.10;;;;;;;-1.86;93.47;99123.78;4968895;28;20058;-77
2023/10/16 03:05:44;;;;;;;1.10;1.10;;;;;;;-2.00;93.47;99124.34;4975589;28;20112;-78
2023/10/16 03:08:10;;;;;;;1.20;1.20;;;;;;;-2.06;93.50;99127.31;4968788;28;20166;-78
2023/10/16 03:10:36;;;;;;;1.10;1.10;;;;;;;-2.39;93.50;99125.41;4969743;28;20125;-77
2023/10/16 03:13:05;;;;;;;1.10;1.10;;;;;;;-2.18;93.97;99123.69;4968015;28;20670;-77
2023/10/16 03:15:35;;;;;;;1.10;1.10;;;;;;;-2.02;93.73;99125.91;4991649;28;20045;-78
2023/10/16 03:18:05;;;;;;;1.10;1.10;;;;;;;-1.98;93.54;99123.66;4974832;28;20519;-77
2023/10/16 03:20:37;;;;;;;1.10;1.10;;;;;;;-2.10;93.60;99128.78;4977599;28;20062;-77
2023/10/16 03:23:08;;;;;;;1.10;1.10;;;;;;;-1.91;93.49;99130.34;4968233;28;20382;-77
2023/10/16 03:28:08;;;;;;;1.10;1.10;;;;;;;-2.01;93.58;99122.50;4991543;28;20073;-77
2023/10/16 03:30:34;;;;;;;1.10;1.10;;;;;;;-2.16;93.34;99116.88;4969474;28;20082;-78
2023/10/16 03:33:03;;;;;;;1.10;1.10;;;;;;;-2.35;93.32;99119.63;4953680;28;20042;-78
2023/10/16 03:35:34;;;;;;;1.02;1.02;;;;;;;-2.56;93.44;99128.28;4972308;28;20556;-78
2023/10/16 03:38:08;;;;;;;1.10;1.10;;;;;;;-2.55;93.22;99122.25;4972723;28;20027;-77
2023/10/16 03:40:34;;;;;;;1.10;1.10;;;;;;;-2.22;93.35;99114.69;4977734;28;20094;-80
2023/10/16 03:42:59;;;;;;;1.10;1.10;;;;;;;-2.14;93.28;99120.56;4981135;28;20886;-79
2023/10/16 03:45:26;;;;;;;1.10;1.10;;;;;;;-2.18;93.26;99119.38;4970753;28;20465;-77
2023/10/16 03:47:57;;;;;;;1.10;1.10;;;;;;;-2.04;92.88;99111.78;4963834;28;20547;-79
2023/10/16 03:50:34;;;;;;;1.10;1.10;;;;;;;-2.01;93.28;99117.25;4965922;28;20092;-79
2023/10/16 03:53:00;;;;;;;;;;;;;;;-2.00;92.96;99116.50;4969199;28;20027;-75
2023/10/16 03:55:25;;;;;;;1.08;1.08;;;;;;;-1.72;93.16;99122.34;4975767;28;19909;-79
2023/10/16 03:57:51;;;;;;;1.10;1.10;;;;;;;-1.90;93.07;99112.16;4975613;28;20043;-78
2023/10/16 04:00:18;;;;;;;1.20;1.20;;;;;;;-2.15;93.01;99108.28;4974751;28;20480;-78
2023/10/16 04:02:47;;;;;;;1.10;1.10;;;;;;;-2.25;93.02;99110.88;4971699;28;20042;-78
2023/10/16 04:05:33;;;;;;;1.10;1.10;;;;;;;-1.91;93.48;99102.50;4968174;28;20046;-77
2023/10/16 04:07:59;;;;;;;1.10;1.10;;;;;;;-1.38;93.09;99102.47;4969114;28;20035;-79
2023/10/16 04:10:28;;;;;;;1.10;1.10;;;;;;;-1.47;92.73;99105.22;4988283;28;20038;-77
2023/10/16 04:12:55;;;;;;;1.10;1.10;;;;;;;-1.46;92.35;99101.81;4972678;28;20109;-77
2023/10/16 04:18:04;;;;;;;1.10;1.10;;;;;;;-1.95;92.37;99089.94;4974641;28;20551;-77
2023/10/16 04:20:43;;;;;;;1.10;1.10;;;;;;;-1.74;92.61;99096.03;4973064;28;20128;-78
2023/10/16 04:23:29;;;;;;;1.10;1.10;;;;;;;-2.28;92.38;99095.88;4972044;28;20042;-77
2023/10/16 04:29:25;;;;;;;1.10;1.10;;;;;;;-2.10;92.68;99089.59;4974370;28;20038;-78
2023/10/16 05:11:36;;;;;;;1.10;1.10;;;;;;;-2.43;93.31;99058.00;4967619;28;20034;-79
2023/10/16 05:22:03;;;;;;;1.10;1.10;;;;;;;-2.88;93.65;99054.19;4966393;28;20046;-80
2023/10/16 06:16:35;;;;;;;1.10;1.10;;;;;;;-2.06;92.20;99075.03;4972625;28;20489;-79
2023/10/16 06:19:07;;;;;;;1.10;1.10;;;;;;;-1.92;92.00;99071.88;4968142;28;20093;-78
2023/10/16 06:21:35;;;;;;;1.10;1.10;;;;;;;-1.45;91.37;99068.72;4970503;28;20117;-79
2023/10/16 06:24:00;;;;;;;1.10;1.10;;;;;;;-1.16;90.69;99066.72;4978194;28;20038;-79
2023/10/16 06:26:27;;;;;;;1.10;1.10;;;;;;;-0.88;89.69;99069.84;4974496;28;20050;-80
2023/10/16 06:28:52;;;;;;;1.20;1.20;;;;;;;-0.63;89.46;99064.78;4977704;28;20501;-79
2023/10/16 06:31:23;;;;;;;1.10;1.10;;;;;;;-0.37;88.88;99072.06;4982186;28;20466;-80
2023/10/16 06:33:54;;;;;;;1.02;1.02;;;;;;;0.08;86.79;99064.94;4981336;28;20069;-80
2023/10/16 06:36:20;;;;;;;1.05;1.05;;;;;;;0.24;86.72;99076.72;4984463;28;20113;-80
2023/10/16 06:38:53;;;;;;;1.10;1.10;;;;;;;0.14;86.48;99070.63;4980421;28;20023;-79
2023/10/16 06:41:22;;;;;;;1.10;1.10;;;;;;;0.30;86.55;99078.88;4971639;28;20041;-79
2023/10/16 06:43:48;;;;;;;1.10;1.10;;;;;;;0.59;86.06;99077.50;4971502;28;20034;-80
2023/10/16 06:46:25;;;;;;;1.00;1.00;;;;;;;1.28;83.91;99068.50;4975337;28;20094;-80
2023/10/16 06:48:53;;;;;;;1.10;1.10;;;;;;;1.41;82.75;99065.03;4990440;28;20109;-80
2023/10/16 06:51:26;;;;;;;1.00;1.00;;;;;;;1.42;83.08;99071.19;4974003;28;20073;-80
2023/10/16 06:53:54;;;;;;;1.10;1.10;;;;;;;1.63;82.46;99077.00;4972081;28;20043;-81
2023/10/16 06:56:31;;;;;;;0.93;0.93;;;;;;;2.58;79.14;99060.66;4967952;28;20039;-80
2023/10/16 06:58:57;;;;;;;1.00;1.00;;;;;;;2.71;79.27;99065.91;4971766;28;20638;-80
2023/10/16 07:01:25;;;;;;;1.00;1.00;;;;;;;2.86;80.13;99062.44;4972822;28;20050;-81
2023/10/16 07:03:54;;;;;;;0.90;0.90;;;;;;;2.75;78.69;99069.66;4972970;28;20114;-80
2023/10/16 07:06:32;;;;;;;0.90;0.90;;;;;;;3.25;78.89;99059.69;4969057;28;20047;-80
2023/10/16 07:09:01;;;;;;;0.82;0.82;;;;;;;3.29;78.73;99051.16;4971873;28;20038;-83
2023/10/16 07:11:27;;;;;;;0.80;0.80;;;;;;;3.65;78.22;99053.38;4969517;28;20473;-81
2023/10/16 07:13:54;;;;;;;0.85;0.85;;;;;;;4.03;76.40;99063.59;4972299;28;20035;-82
2023/10/16 07:16:20;;;;;;;0.80;0.80;;;;;;;4.07;76.20;99070.88;4967609;28;20053;-82
2023/10/16 07:18:46;;;;;;;0.80;0.80;;;;;;;4.07;76.43;99062.94;4972038;28;20051;-82
2023/10/16 07:21:17;;;;;;;0.80;0.80;;;;;;;4.20;76.90;99068.16;4972075;28;20073;-81
2023/10/16 07:23:43;;;;;;;0.80;0.80;;;;;;;4.32;75.88;99057.41;4977324;28;20034;-81
2023/10/16 07:26:09;;;;;;;0.70;0.70;;;;;;;4.59;75.93;99064.28;4964078;28;20047;-81
2023/10/16 07:28:36;;;;;;;0.80;0.80;;;;;;;4.84;76.33;99061.31;4974112;28;20555;-81
2023/10/16 07:31:05;;;;;;;0.80;0.80;;;;;;;5.30;74.67;99060.31;4971854;28;20035;-81
2023/10/16 07:33:32;;;;;;;0.70;0.70;;;;;;;4.58;76.17;99050.97;4969492;28;20043;-81
2023/10/16 07:36:10;;;;;;;0.73;0.73;;;;;;;4.86;76.70;99059.66;4972296;28;20126;-80
2023/10/16 07:38:38;;;;;;;0.70;0.70;;;;;;;5.29;74.54;99046.19;4954162;28;21004;-81
2023/10/16 07:41:04;;;;;;;0.80;0.80;;;;;;;5.82;75.72;99041.94;4973109;28;20043;-82
2023/10/16 07:43:34;;;;;;;0.70;0.70;;;;;;;6.89;74.54;99031.50;4973242;28;20072;-83
2023/10/16 07:49:01;;;;;;;0.70;0.70;;;;;;;8.16;69.42;99032.94;4971570;28;20047;-82
2023/10/16 07:51:27;;;;;;;0.70;0.70;;;;;;;8.73;67.51;99017.66;4987209;28;20072;-82
2023/10/16 07:53:54;;;;;;;0.60;0.60;;;;;;;8.71;64.81;99024.63;4971406;28;20057;-83
2023/10/16 07:56:28;;;;;;;0.60;0.60;;;;;;;8.72;63.19;99017.59;4972821;28;20038;-82
2023/10/16 07:59:16;;;;;;;0.50;0.50;;;;;;;8.94;64.96;99016.69;4971134;28;20042;-82
2023/10/16 08:01:42;;;;;;;0.40;0.40;;;;;;;9.12;72.14;99014.75;4969205;28;20039;-81
2023/10/16 08:06:55;;;;;;;0.40;0.40;;;;;;;10.15;66.53;99007.91;4973674;28;20073;-81
2023/10/16 08:12:12;;;;;;;0.40;0.40;;;;;;;9.65;61.52;99007.00;4965374;28;20082;-83
2023/10/16 08:14:41;;;;;;;0.40;0.40;;;;;;;9.58;68.92;99010.28;4972588;28;20042;-79
2023/10/16 08:17:17;;;;;;;0.40;0.40;;;;;;;9.72;66.58;99017.94;4971369;28;20042;-80
2023/10/16 08:19:49;;;;;;;0.40;0.40;;;;;;;10.35;64.83;99014.91;4970006;28;20042;-81
2023/10/16 08:22:14;;;;;;;0.40;0.40;;;;;;;10.35;67.15;99005.97;4973269;28;20796;-81
2023/10/16 08:24:57;;;;;;;0.30;0.30;;;;;;;11.05;65.00;98997.63;4977146;28;20098;-81
2023/10/16 08:30:33;;;;;;;0.40;0.40;;;;;;;11.63;61.23;99002.06;4974512;28;20154;-81
2023/10/16 08:33:09;;;;;;;0.30;0.30;;;;;;;12.01;66.36;99003.19;4977414;28;20053;-80
2023/10/16 08:35:41;;;;;;;0.30;0.30;;;;;;;11.88;60.57;99002.78;4974856;28;20090;-84
2023/10/16 08:38:20;;;;;;;0.30;0.30;;;;;;;12.46;58.78;98994.59;4970370;28;20665;-78
2023/10/16 08:40:57;;;;;;;0.30;0.30;;;;;;;12.35;63.15;98997.84;4968017;28;20070;-80
2023/10/16 08:43:39;;;;;;;0.30;0.30;;;;;;;11.93;63.85;99006.50;4989488;28;20634;-80
2023/10/16 08:46:18;;;;;;;0.30;0.30;;;;;;;12.89;63.35;99005.44;4965592;28;20055;-80
2023/10/16 08:48:45;;;;;;;0.30;0.30;;;;;;;13.18;60.19;99000.81;4966078;28;20058;-79
2023/10/16 08:51:12;;;;;;;0.22;0.22;;;;;;;13.84;61.73;98998.69;4966612;28;20520;-81
2023/10/16 08:53:38;;;;;;;0.20;0.20;;;;;;;13.98;60.70;98998.97;4971356;28;20050;-81
2023/10/16 08:56:08;;;;;;;0.20;0.20;;;;;;;13.60;54.71;98999.09;4971138;28;20053;-81
2023/10/16 08:58:38;;;;;;;0.30;0.30;;;;;;;12.85;61.30;99009.84;4971855;28;20824;-80
2023/10/16 09:01:07;;;;;;;0.30;0.30;;;;;;;10.46;60.23;99016.16;4967580;28;20042;-80
2023/10/16 09:03:44;;;;;;;0.40;0.40;;;;;;;10.57;62.37;99023.63;4969591;28;20039;-82
2023/10/16 09:06:13;;;;;;;0.50;0.50;;;;;;;11.69;58.34;99012.00;4971785;28;20077;-81
2023/10/16 09:08:41;;;;;;;0.50;0.50;;;;;;;10.88;59.71;99009.56;4957602;28;20412;-78
2023/10/16 09:11:07;;;;;;;0.50;0.50;;;;;;;10.70;57.29;99016.09;4983353;28;20537;-78
2023/10/16 09:13:36;;;;;;;0.50;0.50;;;;;;;11.21;55.90;99010.63;4967086;28;20097;-79
2023/10/16 09:16:11;;;;;;;0.50;0.50;;;;;;;10.69;59.17;99008.03;4971347;28;20677;-80
2023/10/16 09:18:37;;;;;;;0.57;0.57;;;;;;;12.11;54.98;98998.09;4965568;28;20046;-79
2023/10/16 09:21:13;;;;;;;0.50;0.50;;;;;;;12.52;51.83;99000.09;4940859;28;20042;-80
2023/10/16 09:23:51;;;;;;;0.50;0.50;;;;;;;12.33;52.12;98995.13;4970225;28;20379;-78
2023/10/16 09:26:17;;;;;;;0.50;0.50;;;;;;;10.91;55.90;99001.63;4969591;28;20057;-80
2023/10/16 09:28:49;;;;;;;0.50;0.50;;;;;;;10.84;56.14;99003.19;4969834;28;20058;-79
2023/10/16 09:31:18;;;;;;;0.50;0.50;;;;;;;11.32;54.53;99000.25;4970207;28;20039;-80
2023/10/16 09:33:48;;;;;;;0.50;0.50;;;;;;;12.25;52.51;98988.66;4970585;28;20053;-79
2023/10/16 09:36:18;;;;;;;0.50;0.50;;;;;;;12.89;52.01;98993.00;4974658;28;20042;-81
2023/10/16 09:38:56;;;;;;;0.50;0.50;;;;;;;13.03;49.77;98983.50;4967054;28;20488;-80
2023/10/16 09:43:56;;;;;;;0.50;0.50;;;;;;;13.40;49.73;98981.69;4966880;28;20049;-81
2023/10/16 09:49:11;;;;;;;0.40;0.40;;;;;;;12.81;50.70;98991.91;4968406;28;20052;-80
2023/10/16 09:51:39;;;;;;;0.45;0.45;;;;;;;12.65;50.71;98984.34;4966162;28;20733;-80
2023/10/16 09:54:06;;;;;;;0.43;0.43;;;;;;;14.50;45.99;98966.88;4948776;28;20089;-82
2023/10/16 09:56:40;;;;;;;0.40;0.40;;;;;;;13.50;48.32;98967.59;4967282;28;20113;-82
2023/10/16 09:59:33;;;;;;;0.40;0.40;;;;;;;13.43;49.25;98973.72;4964589;28;20716;-82
2023/10/16 10:02:16;;;;;;;0.40;0.40;;;;;;;14.04;46.86;98960.66;4962419;28;20417;-81
2023/10/16 10:04:53;;;;;;;0.40;0.40;;;;;;;15.28;44.06;98962.72;4962205;28;20137;-82
2023/10/16 10:07:20;;;;;;;0.40;0.40;;;;;;;15.67;43.44;98964.19;4985177;28;20038;-82
2023/10/16 10:09:57;;;;;;;0.40;0.40;;;;;;;13.49;47.24;98955.06;4968673;28;20038;-81
2023/10/16 10:12:37;;;;;;;0.40;0.40;;;;;;;12.96;47.03;98964.56;4966646;28;20963;-81
2023/10/16 10:15:15;;;;;;;0.40;0.40;;;;;;;14.79;43.85;98962.00;4968076;28;20047;-80
2023/10/16 10:17:43;;;;;;;0.40;0.40;;;;;;;13.61;45.02;98959.81;4965414;28;20056;-80
2023/10/16 10:20:17;;;;;;;0.40;0.40;;;;;;;15.12;42.64;98958.91;4965361;28;20043;-81
2023/10/16 10:22:45;;;;;;;0.40;0.40;;;;;;;15.77;39.36;98960.72;4981585;28;20138;-82
2023/10/16 10:25:22;;;;;;;0.40;0.40;;;;;;;12.99;44.18;98954.84;4966914;28;20436;-82
2023/10/16 10:27:49;;;;;;;0.40;0.40;;;;;;;12.05;46.86;98962.28;4969724;28;20039;-80
2023/10/16 10:30:25;;;;;;;0.40;0.40;;;;;;;12.33;47.25;98958.59;4968771;28;20042;-81
2023/10/16 10:32:55;;;;;;;0.50;0.50;;;;;;;13.91;44.69;98942.50;4978493;28;20062;-81
2023/10/16 10:35:29;;;;;;;0.40;0.40;;;;;;;15.17;41.75;98946.44;4977247;28;20153;-82
2023/10/16 10:38:07;;;;;;;0.40;0.40;;;;;;;13.12;44.66;98949.75;4960756;28;20063;-79
2023/10/16 10:40:35;;;;;;;0.50;0.50;;;;;;;12.76;45.64;98948.03;4970501;28;20054;-81
2023/10/16 10:43:04;;;;;;;0.50;0.50;;;;;;;14.61;42.20;98938.41;4966251;28;20504;-84
2023/10/16 10:45:45;;;;;;;0.50;0.50;;;;;;;13.98;43.86;98941.75;4970947;28;20116;-80
2023/10/16 10:48:10;;;;;;;0.50;0.50;;;;;;;13.95;41.09;98937.25;4961319;28;20096;-79
2023/10/16 10:50:40;;;;;;;0.40;0.40;;;;;;;16.35;36.18;98929.06;4968560;28;20042;-80
2023/10/16 10:53:15;;;;;;;0.40;0.40;;;;;;;14.12;38.68;98933.06;4965860;28;20039;-79
2023/10/16 10:55:57;;;;;;;0.40;0.40;;;;;;;15.24;37.36;98923.28;4966456;28;20480;-78
2023/10/16 10:58:32;;;;;;;0.40;0.40;;;;;;;15.16;36.03;98917.78;4974322;28;20501;-80
2023/10/16 11:03:48;;;;;;;0.40;0.40;;;;;;;15.21;38.61;98920.53;4972874;28;20059;-80
2023/10/16 11:06:22;;;;;;;0.30;0.30;;;;;;;16.77;36.33;98907.00;4959409;28;20074;-79
2023/10/16 11:08:53;;;;;;;0.30;0.30;;;;;;;18.98;33.57;98897.75;4982349;28;20383;-80
2023/10/16 11:11:19;;;;;;;0.30;0.30;;;;;;;17.34;34.98;98904.63;4969254;28;20074;-80
2023/10/16 11:13:46;;;;;;;0.30;0.30;;;;;;;17.02;35.00;98902.66;4965542;28;20027;-80
2023/10/16 11:16:12;;;;;;;0.30;0.30;;;;;;;18.69;32.84;98892.41;4970664;28;20034;-80
2023/10/16 11:18:38;;;;;;;0.30;0.30;;;;;;;16.61;34.04;98894.25;4968851;28;20041;-79
2023/10/16 11:21:04;;;;;;;0.30;0.30;;;;;;;15.97;35.60;98888.31;4968557;28;20050;-79
2023/10/16 11:23:38;;;;;;;0.30;0.30;;;;;;;17.27;35.69;98886.63;4967085;28;20043;-79
2023/10/16 11:26:12;;;;;;;0.30;0.30;;;;;;;19.19;31.65;98878.75;4986325;28;20607;-81
2023/10/16 11:28:37;;;;;;;0.30;0.30;;;;;;;16.19;36.08;98878.63;4968645;28;20039;-79
2023/10/16 11:31:09;;;;;;;0.30;0.30;;;;;;;16.16;37.44;98872.34;4969141;28;20046;-79
2023/10/16 11:33:44;;;;;;;0.30;0.30;;;;;;;16.73;35.90;98867.44;4973165;28;20053;-80
2023/10/16 11:36:16;;;;;;;0.30;0.30;;;;;;;17.15;35.46;98864.09;4972914;28;20039;-79
2023/10/16 11:38:45;;;;;;;0.30;0.30;;;;;;;16.95;32.02;98852.28;4970249;28;20042;-79
2023/10/16 11:41:16;;;;;;;0.30;0.30;;;;;;;18.30;33.03;98852.72;4967409;28;20062;-78
2023/10/16 11:43:51;;;;;;;0.30;0.30;;;;;;;19.37;32.01;98837.22;4972526;28;20121;-79
2023/10/16 11:46:39;;;;;;;0.30;0.30;;;;;;;16.49;37.45;98848.38;4972179;28;20043;-78
2023/10/16 11:51:48;;;;;;;0.30;0.30;;;;;;;16.79;35.28;98834.25;4971867;28;20043;-78
2023/10/16 11:54:23;;;;;;;0.40;0.40;;;;;;;17.48;34.23;98830.03;4969394;28;20484;-79
2023/10/16 11:56:52;;;;;;;0.30;0.30;;;;;;;15.44;35.90;98826.72;4986317;28;20051;-78
2023/10/16 11:59:19;;;;;;;0.30;0.30;;;;;;;17.06;34.13;98820.91;4968903;28;20450;-77
2023/10/16 12:01:45;;;;;;;0.40;0.40;;;;;;;14.84;37.97;98828.66;4969328;28;20051;-79
2023/10/16 12:04:14;;;;;;;0.40;0.40;;;;;;;14.61;39.62;98826.56;4972203;28;20473;-77
2023/10/16 12:06:44;;;;;;;0.40;0.40;;;;;;;18.04;33.29;98812.22;4975324;28;20046;-78
2023/10/16 12:09:13;;;;;;;0.38;0.38;;;;;;;18.35;32.59;98799.59;4971297;28;20232;-78
2023/10/16 12:11:42;;;;;;;0.40;0.40;;;;;;;17.58;33.67;98804.94;4968296;28;20065;-77
2023/10/16 12:14:13;;;;;;;0.40;0.40;;;;;;;16.31;36.58;98806.94;4965369;28;20564;-80
2023/10/16 12:16:41;;;;;;;0.40;0.40;;;;;;;16.81;34.78;98805.50;4974275;28;20386;-79
2023/10/16 12:19:06;;;;;;;0.40;0.40;;;;;;;15.77;37.71;98802.00;4969132;28;20030;-78
2023/10/16 12:21:32;;;;;;;0.40;0.40;;;;;;;18.15;32.62;98795.09;4974262;28;20046;-79
2023/10/16 12:23:57;;;;;;;0.40;0.40;;;;;;;19.73;31.33;98786.53;4977241;28;20039;-78
2023/10/16 12:26:24;;;;;;;0.40;0.40;;;;;;;18.93;30.25;98786.91;4987328;28;20042;-78
2023/10/16 12:28:50;;;;;;;;;;;;;;;17.63;34.19;98778.84;4988917;28;20042;-77
2023/10/16 12:31:15;;;;;;;0.40;0.40;;;;;;;14.29;37.79;98792.94;4972258;28;20418;-78
2023/10/16 12:33:41;;;;;;;0.50;0.50;;;;;;;16.49;35.26;98775.66;4967374;28;20035;-78
2023/10/16 12:36:08;;;;;;;0.50;0.50;;;;;;;16.87;34.21;98770.53;4972017;28;20499;-78
2023/10/16 12:38:33;;;;;;;0.43;0.43;;;;;;;15.97;34.57;98765.41;4970210;28;20531;-77
2023/10/16 12:41:00;;;;;;;0.40;0.40;;;;;;;15.82;35.00;98766.19;4973262;28;20099;-77
2023/10/16 12:43:27;;;;;;;0.50;0.50;;;;;;;17.13;33.65;98754.44;4973099;28;20074;-76
2023/10/16 12:45:54;;;;;;;;;;;;;;;18.08;31.15;98752.81;4979172;28;20096;-77
2023/10/16 12:48:21;;;;;;;0.50;0.50;;;;;;;19.03;30.40;98747.22;4983056;28;19926;-78
2023/10/16 12:50:47;;;;;;;0.43;0.43;;;;;;;15.44;35.86;98763.09;4965252;28;20043;-77
2023/10/16 12:53:14;;;;;;;0.50;0.50;;;;;;;15.73;34.50;98759.81;4971972;28;20108;-78
2023/10/16 12:55:40;;;;;;;0.40;0.40;;;;;;;16.65;31.90;98751.50;4973530;28;20527;-79
2023/10/16 12:58:10;;;;;;;0.40;0.40;;;;;;;15.95;33.92;98755.50;4966845;28;20102;-78
2023/10/16 13:00:39;;;;;;;0.40;0.40;;;;;;;17.49;31.17;98747.34;4971687;28;20046;-78
2023/10/16 13:03:13;;;;;;;0.40;0.40;;;;;;;18.26;29.81;98749.19;4979350;28;20051;-78
2023/10/16 13:05:40;;;;;;;0.40;0.40;;;;;;;17.99;30.74;98739.31;4970911;28;20519;-81
2023/10/16 13:08:07;;;;;;;0.40;0.40;;;;;;;18.11;30.53;98739.31;4965925;28;20363;-80
2023/10/16 13:10:34;;;;;;;0.40;0.40;;;;;;;17.41;31.67;98748.22;4972669;28;20043;-78
2023/10/16 13:13:00;;;;;;;0.40;0.40;;;;;;;17.50;30.12;98738.34;4965542;28;20069;-80
2023/10/16 13:15:29;;;;;;;0.40;0.40;;;;;;;20.57;28.43;98728.03;4963692;28;20038;-81
2023/10/16 13:17:56;;;;;;;0.30;0.30;;;;;;;21.85;25.27;98714.59;4967030;28;20041;-79
2023/10/16 13:20:27;;;;;;;0.30;0.30;;;;;;;18.05;29.31;98731.19;4986886;28;20491;-79
2023/10/16 13:22:54;;;;;;;0.30;0.30;;;;;;;16.75;32.64;98739.00;4963562;28;20069;-79
2023/10/16 13:25:22;;;;;;;0.40;0.40;;;;;;;14.92;34.47;98741.00;4969151;28;20043;-78
2023/10/16 13:27:53;;;;;;;0.40;0.40;;;;;;;16.73;32.37;98734.53;4965236;28;20070;-79
2023/10/16 13:30:22;;;;;;;0.40;0.40;;;;;;;18.08;31.59;98733.00;4970195;28;20088;-78
2023/10/16 13:32:48;;;;;;;0.40;0.40;;;;;;;19.25;28.67;98720.03;4968515;28;20131;-78
2023/10/16 13:35:18;;;;;;;0.40;0.40;;;;;;;17.18;32.16;98731.09;4980766;28;20058;-80
2023/10/16 13:37:48;;;;;;;0.40;0.40;;;;;;;16.62;32.78;98727.25;4962872;28;20054;-80
2023/10/16 13:40:21;;;;;;;0.50;0.50;;;;;;;17.00;32.85;98723.81;4965096;28;20501;-80
2023/10/16 13:42:48;;;;;;;0.40;0.40;;;;;;;16.55;31.93;98725.41;4965215;28;20039;-79
2023/10/16 13:45:14;;;;;;;0.45;0.45;;;;;;;16.38;32.90;98716.31;4965971;28;20034;-81
2023/10/16 13:47:42;;;;;;;0.50;0.50;;;;;;;18.42;30.33;98707.75;4962731;28;20047;-77
2023/10/16 13:50:13;;;;;;;0.40;0.40;;;;;;;17.60;31.04;98711.38;4980740;28;20574;-76
2023/10/16 13:52:46;;;;;;;0.50;0.50;;;;;;;18.45;29.62;98709.56;4971547;28;20046;-77
2023/10/16 13:55:14;;;;;;;0.40;0.40;;;;;;;18.84;28.93;98699.53;4965921;28;20039;-78
2023/10/16 13:57:43;;;;;;;0.40;0.40;;;;;;;17.89;30.60;98706.03;4970455;28;20047;-77
2023/10/16 14:00:29;;;;;;;0.40;0.40;;;;;;;17.95;29.37;98702.41;4965178;28;20499;-78